Airfield :
LOGIN :

Register | Disclaimer

   EN    FR    IT 

 










Legend :    VFR   Marginal VFR   IFR   Intensive IFR   Very Intensive IFR
Visi :
Ceiling :
>= 8 km
>= 3000ft
5 to 8 km
1000 to 3000 ft
1500m to 5 km
500 to 1000 ft
800 to 1500m
200 to 500 ft
< 800m
< 200 ft
Symbols :   Thunderstorms  Fog  Heavy snow  Heavy precipitations  Wind > 20 kt
SIGMETs :     Misc.  Thunderstorms  Icing  Turbulence  Mountain Waves  Volcanic Ashes






- Airport Elevation : 512 ft
- IATA code : URO


LFOP - Rouen Vallée de Seine

CURRENT METAR :
  • 281830Z AUTO 05010KT CAVOK 20/05 Q1027 NOSIG

EXPIRED METARs :
  • 281800Z AUTO 05012KT CAVOK 21/04 Q1027 NOSIG
  • 281730Z AUTO 06013KT CAVOK 22/04 Q1028 NOSIG
  • 281700Z AUTO 06013KT CAVOK 22/04 Q1028 NOSIG
  • 281630Z AUTO 05013KT 020V080 CAVOK 23/04 Q1028 NOSIG
  • 281600Z AUTO 07013KT CAVOK 23/04 Q1028 NOSIG

TAF TAF LFOP
Valid from the 28 at 18:00 until the 29 at 18:00 UTC


281700Z 2818/2918 06012KT CAVOK
ATIS : +33 2 35 80 80 34
Met : +33 2 32 86 52 80



MET'MAP, your aeronautical weather chart ! - Copyright ORBIFLY December 2007 - Disclaimer

ORBIFLY MET'MAP TEAM :

Programming & Development : Alexandra Zaïnal
Concept & original design : Baudouin d'Aumeries
Assistance for programming : Marc-Olivier Méhu
Technical & hardware support : Manuel Goepfert

Contact : metmap@orbifly.com




SOURCES & CREDITS :

   NOAA